Alden, Illinois
Current Conditions -  °F | °C
As of 11:35 AM on Monday 24 Nov 2014 (Local Time) from KBUU Reporting Station
Light Snow Light Snow  
Wind Chill: 22°   Ceiling: 700
Heat Index: 32°   Visibility: 0.75mi
Dew Point: 31°   Wind: 13mph
Humidity: 97%   Direction: 250°WSW
Pressure: 29.21"   Gusts: 21mph
Location:  42.46°N, 88.52°W
Report Text: KBUU 241735Z AUTO 25011G18KT 3/4SM -SN OVC007 00/00 A2921 RMK AO2 P0003 T10011005
Loading
Personal Weather Stations






























Interactive Weather Map New forecast layout! Learn more

10-Day Weather Forecast

Advertisements
Track Severe Weather on mobile